Time;durP1;ratioP1;P1;durP2;ratioP2;P2;SDS_P1;SDS_P2;PMS_P1;PMS_P2;Temp;Humidity;BMP_temperature;BMP_pressure;BME280_temperature;BME280_humidity;BME280_pressure;Samples;Min_cycle;Max_cycle;Signal;HPM_P1;HPM_P2
2020/12/01 00:01:22;;;;;;;18.08;11.85;;;3.60;99.90;;;;;;5116785;28;20744;-80
2020/12/01 00:03:48;;;;;;;14.70;11.73;;;3.60;99.90;;;;;;5116880;28;20655;-79
2020/12/01 00:06:15;;;;;;;15.10;12.48;;;3.70;99.90;;;;;;5116801;28;20630;-80
2020/12/01 00:08:41;;;;;;;15.63;11.70;;;3.80;99.90;;;;;;5116626;28;20282;-79
2020/12/01 00:11:08;;;;;;;14.70;11.87;;;3.80;99.90;;;;;;5116682;28;20188;-80
2020/12/01 00:13:34;;;;;;;15.02;12.35;;;3.90;99.90;;;;;;5113588;28;20985;-81
2020/12/01 00:16:00;;;;;;;15.88;12.85;;;3.90;99.90;;;;;;5108060;28;20260;-80
2020/12/01 00:18:26;;;;;;;20.00;13.90;;;3.90;99.90;;;;;;5095886;28;20196;-81
2020/12/01 00:20:52;;;;;;;15.05;12.20;;;4.00;99.90;;;;;;5095824;28;20275;-79
2020/12/01 00:23:19;;;;;;;17.20;11.90;;;4.00;99.90;;;;;;5095871;28;20254;-80
2020/12/01 00:25:46;;;;;;;18.25;13.52;;;4.00;99.90;;;;;;5095730;28;21020;-80
2020/12/01 00:28:14;;;;;;;17.33;12.73;;;4.00;99.90;;;;;;5095681;28;20609;-81
2020/12/01 00:30:42;;;;;;;13.27;11.27;;;4.00;99.90;;;;;;5095543;28;20615;-80
2020/12/01 00:33:09;;;;;;;18.05;12.90;;;4.00;99.90;;;;;;5095451;28;20194;-81
2020/12/01 00:35:35;;;;;;;16.50;12.23;;;4.00;99.90;;;;;;5095341;28;20307;-81
2020/12/01 00:38:01;;;;;;;15.98;11.68;;;4.00;99.90;;;;;;5095323;28;20665;-80
2020/12/01 00:40:27;;;;;;;15.45;12.00;;;4.00;99.90;;;;;;5095334;28;20279;-81
2020/12/01 00:42:54;;;;;;;16.83;11.82;;;4.00;99.90;;;;;;5095305;28;20656;-80
2020/12/01 00:45:20;;;;;;;15.13;11.82;;;4.10;99.90;;;;;;5095550;28;20620;-81
2020/12/01 00:47:46;;;;;;;15.38;11.85;;;4.10;99.90;;;;;;5114859;28;20616;-80
2020/12/01 00:50:16;;;;;;;16.42;12.15;;;4.10;99.90;;;;;;5115581;28;20298;-80
2020/12/01 00:52:42;;;;;;;18.95;14.35;;;4.20;99.90;;;;;;5115594;28;20274;-80
2020/12/01 00:55:09;;;;;;;17.00;11.93;;;4.20;99.90;;;;;;5115530;28;20298;-81
2020/12/01 00:57:36;;;;;;;15.85;11.93;;;4.20;99.90;;;;;;5115447;28;20219;-80
2020/12/01 01:00:05;;;;;;;13.88;11.85;;;4.20;99.90;;;;;;5115241;28;20278;-79
2020/12/01 01:02:31;;;;;;;13.57;10.98;;;4.20;99.90;;;;;;5115416;28;20283;-81
2020/12/01 01:04:57;;;;;;;15.83;12.70;;;4.20;99.90;;;;;;5115370;28;20667;-81
2020/12/01 01:07:23;;;;;;;15.53;12.63;;;4.20;99.90;;;;;;5115288;28;20491;-81
2020/12/01 01:09:49;;;;;;;15.90;11.80;;;4.20;99.90;;;;;;5115300;28;20441;-81
2020/12/01 01:12:15;;;;;;;15.67;12.43;;;4.20;99.90;;;;;;5113449;28;20449;-81
2020/12/01 01:14:42;;;;;;;17.83;12.43;;;4.20;99.90;;;;;;5094441;28;20506;-80
2020/12/01 01:17:08;;;;;;;18.30;13.45;;;4.20;99.90;;;;;;5094666;28;20551;-80
2020/12/01 01:19:34;;;;;;;14.32;11.32;;;4.20;99.90;;;;;;5110899;28;20219;-81
2020/12/01 01:22:00;;;;;;;16.45;13.40;;;4.30;99.90;;;;;;5115024;28;20660;-81
2020/12/01 01:24:26;;;;;;;18.60;13.50;;;4.30;99.90;;;;;;5114943;28;20279;-81
2020/12/01 01:26:54;;;;;;;16.53;13.20;;;4.30;99.90;;;;;;5114931;28;20196;-82
2020/12/01 01:29:22;;;;;;;17.55;12.75;;;4.20;99.90;;;;;;5114625;28;20545;-81
2020/12/01 01:31:52;;;;;;;16.80;13.32;;;4.20;99.90;;;;;;5114838;28;20278;-80
2020/12/01 01:34:18;;;;;;;17.15;12.18;;;4.20;99.90;;;;;;5114789;28;20625;-80
2020/12/01 01:36:44;;;;;;;18.23;13.00;;;4.20;99.90;;;;;;5114674;28;20643;-80
2020/12/01 01:39:10;;;;;;;15.52;12.73;;;4.20;99.90;;;;;;5114587;28;20275;-80
2020/12/01 01:41:38;;;;;;;16.77;12.80;;;4.20;99.90;;;;;;5114515;28;20247;-81
2020/12/01 01:44:16;;;;;;;16.50;13.10;;;4.30;99.90;;;;;;5111623;28;20890;-82
2020/12/01 01:46:44;;;;;;;16.83;13.43;;;4.30;99.90;;;;;;5114447;27;20278;-82
2020/12/01 01:49:14;;;;;;;15.90;12.70;;;4.20;99.90;;;;;;5114489;28;20271;-81
2020/12/01 01:51:45;;;;;;;17.55;13.13;;;4.30;99.90;;;;;;5114408;28;20303;-81
2020/12/01 01:54:11;;;;;;;18.17;14.27;;;4.30;99.90;;;;;;5114175;28;20274;-81
2020/12/01 01:56:42;;;;;;;16.02;13.98;;;4.20;99.90;;;;;;5114013;28;20298;-81
2020/12/01 01:59:09;;;;;;;18.95;13.73;;;4.20;99.90;;;;;;5113146;28;20596;-81
2020/12/01 02:01:35;;;;;;;18.58;13.98;;;4.20;99.90;;;;;;5114238;28;20232;-81
2020/12/01 02:04:03;;;;;;;18.52;14.43;;;4.20;99.90;;;;;;5114124;28;20224;-81
2020/12/01 02:06:34;;;;;;;16.65;13.02;;;4.10;99.90;;;;;;5114004;28;20275;-81
2020/12/01 02:09:03;;;;;;;18.48;13.48;;;4.10;99.90;;;;;;5113897;28;20278;-81
2020/12/01 02:11:31;;;;;;;19.52;14.48;;;4.10;99.90;;;;;;5114006;28;20811;-81
2020/12/01 02:14:04;;;;;;;19.13;14.00;;;4.10;99.90;;;;;;5097850;28;20219;-81
2020/12/01 02:16:31;;;;;;;18.20;13.93;;;4.10;99.90;;;;;;5093468;28;20224;-81
2020/12/01 02:18:57;;;;;;;16.13;13.43;;;4.10;99.90;;;;;;5093430;28;20283;-81
2020/12/01 02:21:33;;;;;;;19.17;14.07;;;4.10;99.90;;;;;;5093316;28;20220;-81
2020/12/01 02:24:01;;;;;;;18.30;13.38;;;4.00;99.90;;;;;;5093770;28;20223;-80
2020/12/01 02:26:29;;;;;;;19.60;14.35;;;4.10;99.90;;;;;;5093762;28;20279;-80
2020/12/01 02:28:55;;;;;;;21.67;14.77;;;4.10;99.90;;;;;;5093603;28;20192;-80
2020/12/01 02:31:21;;;;;;;16.08;13.23;;;4.10;99.90;;;;;;5093516;28;20193;-79
2020/12/01 02:33:47;;;;;;;20.17;15.68;;;4.10;99.90;;;;;;5093460;28;20269;-79
2020/12/01 02:36:14;;;;;;;18.70;13.88;;;4.00;99.90;;;;;;5093608;28;20297;-79
2020/12/01 02:38:41;;;;;;;18.58;14.48;;;4.00;99.90;;;;;;5093536;28;20192;-80
2020/12/01 02:41:07;;;;;;;16.98;14.00;;;4.10;99.90;;;;;;5093471;28;20275;-79
2020/12/01 02:43:34;;;;;;;20.98;15.55;;;4.10;99.90;;;;;;5093456;28;20216;-80
2020/12/01 02:46:00;;;;;;;18.27;13.70;;;4.20;99.90;;;;;;5093265;28;20723;-80
2020/12/01 02:48:26;;;;;;;16.38;13.55;;;4.20;99.90;;;;;;5093236;28;20624;-80
2020/12/01 02:50:52;;;;;;;17.67;14.25;;;4.20;99.90;;;;;;5093423;28;20719;-79
2020/12/01 02:53:18;;;;;;;19.10;14.57;;;4.20;99.90;;;;;;5093353;28;20242;-81
2020/12/01 02:55:44;;;;;;;18.67;15.10;;;4.20;99.90;;;;;;5093120;28;20495;-81
2020/12/01 02:58:10;;;;;;;19.33;14.73;;;4.30;99.90;;;;;;5093141;28;20607;-81
2020/12/01 03:00:37;;;;;;;21.65;15.80;;;4.30;99.90;;;;;;5093125;28;20443;-81
2020/12/01 03:03:03;;;;;;;19.77;14.52;;;4.20;99.90;;;;;;5093072;28;20723;-80
2020/12/01 03:05:29;;;;;;;22.17;15.45;;;4.30;99.90;;;;;;5093118;28;20287;-80
2020/12/01 03:07:55;;;;;;;22.73;15.73;;;4.30;99.90;;;;;;5093050;28;20190;-80
2020/12/01 03:10:21;;;;;;;19.37;13.77;;;4.30;99.90;;;;;;5092647;28;21128;-80
2020/12/01 03:12:47;;;;;;;23.02;16.50;;;4.40;99.90;;;;;;5099197;28;20873;-80
2020/12/01 03:15:15;;;;;;;23.48;15.40;;;4.30;99.90;;;;;;5112991;28;20308;-81
2020/12/01 03:17:42;;;;;;;24.55;15.40;;;4.40;99.90;;;;;;5113193;28;20703;-80
2020/12/01 03:20:08;;;;;;;19.33;14.85;;;4.40;99.90;;;;;;5112423;28;20639;-83
2020/12/01 03:22:34;;;;;;;25.00;16.92;;;4.40;99.90;;;;;;5111540;28;20180;-80
2020/12/01 03:25:00;;;;;;;21.90;16.02;;;4.40;99.90;;;;;;5092983;28;20269;-81
2020/12/01 03:27:26;;;;;;;20.60;15.85;;;4.40;99.90;;;;;;5092815;28;20713;-81
2020/12/01 03:29:52;;;;;;;21.73;16.75;;;4.40;99.90;;;;;;5092747;28;20284;-81
2020/12/01 03:32:20;;;;;;;24.55;17.35;;;4.30;99.90;;;;;;5092808;28;20608;-81
2020/12/01 03:34:47;;;;;;;23.67;16.30;;;4.30;99.90;;;;;;5092617;28;20189;-81
2020/12/01 03:37:13;;;;;;;24.48;16.30;;;4.30;99.90;;;;;;5092565;28;20212;-82
2020/12/01 03:39:39;;;;;;;20.98;17.25;;;4.20;99.90;;;;;;5092325;28;20212;-81
2020/12/01 03:42:05;;;;;;;22.08;15.80;;;4.30;99.90;;;;;;5092113;28;20727;-81
2020/12/01 03:44:31;;;;;;;24.47;17.70;;;4.30;99.90;;;;;;5092623;28;20192;-84
2020/12/01 03:46:57;;;;;;;22.05;17.05;;;4.30;99.90;;;;;;5092413;28;20858;-88
2020/12/01 03:49:23;;;;;;;25.30;16.73;;;4.30;99.90;;;;;;5092115;28;20188;-84
2020/12/01 03:51:50;;;;;;;20.92;15.80;;;4.30;99.90;;;;;;5097833;28;20291;-88
2020/12/01 03:54:17;;;;;;;24.02;16.98;;;4.30;99.90;;;;;;5113113;28;20215;-84
2020/12/01 03:56:43;;;;;;;21.40;16.27;;;4.30;99.90;;;;;;5112843;28;20713;-81
2020/12/01 03:59:09;;;;;;;22.60;16.80;;;4.30;99.90;;;;;;5112525;28;20674;-80
2020/12/01 04:01:35;;;;;;;24.92;18.23;;;4.30;99.90;;;;;;5104604;28;20280;-80
2020/12/01 04:04:01;;;;;;;23.73;16.58;;;4.20;99.90;;;;;;5092681;28;20189;-79
2020/12/01 04:06:27;;;;;;;24.40;17.90;;;4.20;99.90;;;;;;5092406;28;20589;-80
2020/12/01 04:08:54;;;;;;;26.25;18.17;;;4.30;99.90;;;;;;5091978;28;20663;-80
2020/12/01 04:11:20;;;;;;;23.30;17.17;;;4.30;99.90;;;;;;5092034;28;20216;-80
2020/12/01 04:13:46;;;;;;;22.27;17.50;;;4.30;99.90;;;;;;5106478;28;20279;-79
2020/12/01 04:16:14;;;;;;;26.33;18.80;;;4.30;99.90;;;;;;5112561;28;20247;-79
2020/12/01 04:18:40;;;;;;;27.10;20.20;;;4.30;99.90;;;;;;5105245;28;20246;-80
2020/12/01 04:21:06;;;;;;;28.10;18.90;;;4.30;99.90;;;;;;5091912;28;20626;-79
2020/12/01 04:23:32;;;;;;;27.58;18.63;;;4.30;99.90;;;;;;5102455;28;20654;-80
2020/12/01 04:25:59;;;;;;;30.43;19.70;;;4.30;99.90;;;;;;5106693;28;20244;-79
2020/12/01 04:28:25;;;;;;;26.95;19.88;;;4.30;99.90;;;;;;5116491;28;20907;-79
2020/12/01 04:30:51;;;;;;;27.90;19.07;;;4.30;99.90;;;;;;5116380;28;20192;-80
2020/12/01 04:33:17;;;;;;;28.80;18.97;;;4.30;99.90;;;;;;5116289;28;20469;-79
2020/12/01 04:35:43;;;;;;;28.67;19.88;;;4.40;99.90;;;;;;5102845;28;20553;-79
2020/12/01 04:38:09;;;;;;;26.65;18.27;;;4.40;99.90;;;;;;5095855;28;20626;-80
2020/12/01 04:40:38;;;;;;;28.70;19.48;;;4.40;99.90;;;;;;5095907;28;20221;-79
2020/12/01 04:43:13;;;;;;;31.10;20.05;;;4.40;99.90;;;;;;5095582;28;20223;-79
2020/12/01 04:45:41;;;;;;;27.52;20.20;;;4.40;99.90;;;;;;5095015;28;20215;-79
2020/12/01 04:48:15;;;;;;;27.25;19.25;;;4.40;99.90;;;;;;5095257;28;20251;-79
2020/12/01 04:50:46;;;;;;;29.05;21.10;;;4.40;99.90;;;;;;5095573;28;20192;-80
2020/12/01 04:53:37;;;;;;;30.95;22.65;;;4.40;99.90;;;;;;5095479;28;20189;-79
2020/12/01 04:56:36;;;;;;;28.90;20.00;;;4.40;99.90;;;;;;5095182;28;20771;-80
2020/12/01 04:59:20;;;;;;;25.17;19.25;;;4.40;99.90;;;;;;5095671;28;20279;-81
2020/12/01 05:02:34;;;;;;;29.75;20.80;;;4.50;99.90;;;;;;5095305;28;20184;-80
2020/12/01 05:05:16;;;;;;;34.42;20.40;;;4.50;99.90;;;;;;5095209;28;20185;-81
2020/12/01 05:08:04;;;;;;;25.58;19.48;;;4.50;99.90;;;;;;5095362;28;20790;-81
2020/12/01 05:10:35;;;;;;;28.27;20.08;;;4.50;99.90;;;;;;5095290;28;20185;-80
2020/12/01 05:13:15;;;;;;;27.20;19.73;;;4.40;99.90;;;;;;5103048;28;20725;-81
2020/12/01 05:15:46;;;;;;;29.38;20.75;;;4.50;99.90;;;;;;5115248;28;20266;-79
2020/12/01 05:18:17;;;;;;;29.17;20.63;;;4.50;99.90;;;;;;5115433;28;20727;-79
2020/12/01 05:20:46;;;;;;;35.38;21.08;;;4.50;99.90;;;;;;5115301;28;20215;-79
2020/12/01 05:23:14;;;;;;;33.08;20.55;;;4.40;99.90;;;;;;5115601;27;20231;-79
2020/12/01 05:25:40;;;;;;;28.67;20.90;;;4.40;99.90;;;;;;5115599;28;20235;-79
2020/12/01 05:28:10;;;;;;;30.13;20.63;;;4.50;99.90;;;;;;5115126;28;20183;-81
2020/12/01 05:30:37;;;;;;;32.95;22.02;;;4.50;99.90;;;;;;5115416;28;20442;-80
2020/12/01 05:33:16;;;;;;;33.28;21.80;;;4.50;99.90;;;;;;5114943;28;20188;-80
2020/12/01 05:35:42;;;;;;;31.75;21.30;;;4.50;99.90;;;;;;5115093;28;20239;-80
2020/12/01 05:38:17;;;;;;;29.77;20.92;;;4.50;99.90;;;;;;5115080;28;20278;-80
2020/12/01 05:40:49;;;;;;;29.38;22.17;;;4.50;99.90;;;;;;5115155;28;20278;-81
2020/12/01 05:43:24;;;;;;;34.08;22.08;;;4.50;99.90;;;;;;5114977;28;20192;-81
2020/12/01 05:45:50;;;;;;;31.90;21.50;;;4.50;99.90;;;;;;5114915;28;20281;-81
2020/12/01 05:48:39;;;;;;;31.02;21.63;;;4.50;99.90;;;;;;5114980;28;20226;-80
2020/12/01 05:51:11;;;;;;;37.38;24.70;;;4.50;99.90;;;;;;5114728;28;20646;-81
2020/12/01 05:53:37;;;;;;;32.22;22.75;;;4.50;99.90;;;;;;5115022;28;20274;-81
2020/12/01 05:56:14;;;;;;;34.57;23.23;;;4.50;99.90;;;;;;5117377;28;20288;-80
2020/12/01 05:58:44;;;;;;;26.13;20.08;;;4.50;99.90;;;;;;5116429;28;20437;-81
2020/12/01 06:01:10;;;;;;;31.98;23.35;;;4.50;99.90;;;;;;5115858;28;20196;-81
2020/12/01 06:03:57;;;;;;;33.63;23.38;;;4.50;99.90;;;;;;5116015;28;20275;-81
2020/12/01 06:06:30;;;;;;;33.13;24.15;;;4.50;99.90;;;;;;5114415;28;20217;-81
2020/12/01 06:08:59;;;;;;;31.15;22.35;;;4.50;99.90;;;;;;5114551;28;20253;-81
2020/12/01 06:11:35;;;;;;;33.95;22.20;;;4.40;99.90;;;;;;5114632;28;20245;-79
2020/12/01 06:14:13;;;;;;;38.15;24.13;;;4.40;99.90;;;;;;5114151;28;20188;-79
2020/12/01 06:16:48;;;;;;;32.58;21.83;;;4.40;99.90;;;;;;5114209;28;20301;-79
2020/12/01 06:19:22;;;;;;;33.75;24.08;;;4.40;99.90;;;;;;5114347;28;20286;-79
2020/12/01 06:22:22;;;;;;;32.33;22.55;;;4.50;99.90;;;;;;5114433;28;20282;-79
2020/12/01 06:25:26;;;;;;;35.38;23.15;;;4.50;99.90;;;;;;5114223;28;20229;-80
2020/12/01 06:28:45;;;;;;;33.90;22.92;;;4.40;99.90;;;;;;5114079;28;20274;-80
2020/12/01 06:31:31;;;;;;;30.10;21.75;;;4.50;99.90;;;;;;5113787;28;20709;-80
2020/12/01 06:34:26;;;;;;;32.97;21.58;;;4.50;99.90;;;;;;5114075;28;20223;-80
2020/12/01 06:37:19;;;;;;;36.10;21.90;;;4.50;99.90;;;;;;5113907;28;20219;-80
2020/12/01 06:39:49;;;;;;;37.40;24.20;;;4.50;99.90;;;;;;5113691;27;20282;-80
2020/12/01 06:42:20;;;;;;;39.33;22.15;;;4.50;99.90;;;;;;5113620;28;20720;-80
2020/12/01 06:44:54;;;;;;;37.60;21.33;;;4.50;99.90;;;;;;5113450;28;20656;-80
2020/12/01 06:47:26;;;;;;;40.17;22.23;;;4.50;99.90;;;;;;5113787;28;20191;-79
2020/12/01 06:49:56;;;;;;;33.83;22.65;;;4.50;99.90;;;;;;5113651;28;20220;-79
2020/12/01 06:52:23;;;;;;;40.35;23.20;;;4.40;99.90;;;;;;5113570;28;20215;-80
2020/12/01 06:54:50;;;;;;;38.00;24.05;;;4.50;99.90;;;;;;5113779;28;20721;-79
2020/12/01 06:57:26;;;;;;;31.30;21.67;;;4.50;99.90;;;;;;5113658;28;20247;-80
2020/12/01 06:59:53;;;;;;;34.45;23.58;;;4.40;99.90;;;;;;5113624;28;20265;-79
2020/12/01 07:02:25;;;;;;;32.60;21.60;;;4.40;99.90;;;;;;5113562;28;20276;-81
2020/12/01 07:05:11;;;;;;;31.25;21.75;;;4.40;99.90;;;;;;5113361;28;20626;-80
2020/12/01 07:07:40;;;;;;;30.15;22.08;;;4.40;99.90;;;;;;5095919;28;20189;-81
2020/12/01 07:10:30;;;;;;;33.63;22.60;;;4.40;99.90;;;;;;5092650;28;20677;-81
2020/12/01 07:13:11;;;;;;;39.00;24.67;;;4.40;99.90;;;;;;5096159;28;20230;-80
2020/12/01 07:15:41;;;;;;;34.20;23.58;;;4.50;99.90;;;;;;5113130;28;20314;-80
2020/12/01 07:18:18;;;;;;;31.20;21.85;;;4.50;99.90;;;;;;5113441;28;20215;-81
2020/12/01 07:21:03;;;;;;;33.70;21.88;;;4.50;99.90;;;;;;5113460;28;20666;-79
2020/12/01 07:23:34;;;;;;;33.45;21.83;;;4.60;99.90;;;;;;5113216;28;20621;-79
2020/12/01 07:26:15;;;;;;;32.80;22.20;;;4.60;99.90;;;;;;5105127;28;20703;-79
2020/12/01 07:28:55;;;;;;;33.42;21.20;;;4.60;99.90;;;;;;5092946;28;20279;-79
2020/12/01 07:31:25;;;;;;;32.25;22.95;;;4.60;99.90;;;;;;5092971;28;20234;-79
2020/12/01 07:33:55;;;;;;;32.53;23.02;;;4.60;99.90;;;;;;5092808;28;20280;-79
2020/12/01 07:36:39;;;;;;;33.25;22.15;;;4.70;99.90;;;;;;5092363;28;20255;-79
2020/12/01 07:39:17;;;;;;;35.15;24.10;;;4.70;99.90;;;;;;5092687;28;20210;-79
2020/12/01 07:41:53;;;;;;;33.45;22.98;;;4.70;99.90;;;;;;5092867;28;20219;-80
2020/12/01 07:44:21;;;;;;;35.85;23.25;;;4.70;99.90;;;;;;5092650;28;20734;-79
2020/12/01 07:47:00;;;;;;;31.38;21.73;;;4.70;99.90;;;;;;5093089;28;20242;-80
2020/12/01 07:49:28;;;;;;;35.90;22.48;;;4.70;99.90;;;;;;5092887;28;20200;-80
2020/12/01 07:52:01;;;;;;;33.88;22.90;;;4.80;99.90;;;;;;5092587;28;20220;-80
2020/12/01 07:54:27;;;;;;;31.15;22.25;;;4.90;99.90;;;;;;5092663;28;20246;-80
2020/12/01 07:56:53;;;;;;;33.88;22.65;;;4.90;99.90;;;;;;5093355;28;20307;-80
2020/12/01 07:59:20;;;;;;;33.72;23.27;;;5.00;99.90;;;;;;5096658;28;20243;-80
2020/12/01 08:01:46;;;;;;;32.63;21.63;;;5.00;99.90;;;;;;5096673;28;20242;-80
2020/12/01 08:04:15;;;;;;;28.88;19.77;;;5.10;99.90;;;;;;5096490;28;20271;-80
2020/12/01 08:06:41;;;;;;;28.65;19.40;;;5.10;99.90;;;;;;5096580;28;20643;-80
2020/12/01 08:09:13;;;;;;;33.50;22.00;;;5.10;99.90;;;;;;5096301;28;20275;-80
2020/12/01 08:11:43;;;;;;;32.03;22.65;;;5.20;99.90;;;;;;5096239;28;20722;-80
2020/12/01 08:14:10;;;;;;;33.35;19.33;;;5.20;99.90;;;;;;5096256;28;20277;-80
2020/12/01 08:16:38;;;;;;;32.75;20.67;;;5.30;99.90;;;;;;5096233;28;20303;-80
2020/12/01 08:19:04;;;;;;;30.98;20.80;;;5.30;99.90;;;;;;5096412;28;20583;-80
2020/12/01 08:21:34;;;;;;;30.40;19.92;;;5.40;99.90;;;;;;5096170;28;20669;-80
2020/12/01 08:24:03;;;;;;;28.77;20.00;;;5.40;99.90;;;;;;5096087;28;20197;-80
2020/12/01 08:26:32;;;;;;;27.08;19.55;;;5.40;99.90;;;;;;5096063;28;20279;-80
2020/12/01 08:29:05;;;;;;;26.35;17.70;;;5.50;99.90;;;;;;5096102;28;20275;-81
2020/12/01 08:31:37;;;;;;;26.52;17.33;;;5.50;99.90;;;;;;5096012;28;20216;-80
2020/12/01 08:34:17;;;;;;;23.25;17.55;;;5.50;99.90;;;;;;5095964;28;20212;-80
2020/12/01 08:37:00;;;;;;;27.88;19.58;;;5.60;99.90;;;;;;5095990;28;20617;-79
2020/12/01 08:39:41;;;;;;;27.23;17.73;;;5.60;99.90;;;;;;5095868;28;20223;-79
2020/12/01 08:42:17;;;;;;;26.17;18.40;;;5.70;99.90;;;;;;5095778;28;20196;-80
2020/12/01 08:44:52;;;;;;;23.42;17.17;;;5.80;99.90;;;;;;5095599;28;20219;-80
2020/12/01 08:47:21;;;;;;;25.13;18.40;;;5.90;99.90;;;;;;5095367;28;20620;-80
2020/12/01 08:49:51;;;;;;;25.30;18.27;;;5.90;99.90;;;;;;5095717;28;20224;-80
2020/12/01 08:52:27;;;;;;;24.02;17.05;;;6.00;99.90;;;;;;5095643;28;20346;-80
2020/12/01 08:54:57;;;;;;;23.55;16.00;;;5.90;99.90;;;;;;5095444;28;20192;-80
2020/12/01 08:57:32;;;;;;;22.30;16.63;;;6.00;99.90;;;;;;5095352;28;20652;-80
2020/12/01 09:00:08;;;;;;;40.25;27.25;;;6.00;99.90;;;;;;5095522;28;20275;-80
2020/12/01 09:02:37;;;;;;;35.50;23.67;;;5.90;99.90;;;;;;5095370;28;20188;-80
2020/12/01 09:05:05;;;;;;;22.15;16.65;;;5.80;99.90;;;;;;5095310;28;20607;-80
2020/12/01 09:07:35;;;;;;;26.73;16.67;;;5.80;99.90;;;;;;5094795;28;20634;-80
2020/12/01 09:10:09;;;;;;;21.25;16.60;;;5.80;99.90;;;;;;5095419;28;20184;-80
2020/12/01 09:12:39;;;;;;;27.10;17.40;;;5.80;99.90;;;;;;5099650;28;20187;-80
2020/12/01 09:15:20;;;;;;;21.80;16.42;;;5.80;99.90;;;;;;5115175;28;20228;-80
2020/12/01 09:17:58;;;;;;;21.52;16.20;;;5.90;99.90;;;;;;5115389;28;20223;-80
2020/12/01 09:20:53;;;;;;;20.52;15.43;;;5.90;99.90;;;;;;5115198;28;20725;-80
2020/12/01 09:23:21;;;;;;;22.63;16.33;;;6.10;99.90;;;;;;5115468;28;20531;-81
2020/12/01 09:25:48;;;;;;;22.13;16.60;;;6.20;99.90;;;;;;5115297;27;20274;-80
2020/12/01 09:28:18;;;;;;;23.98;17.80;;;6.30;99.90;;;;;;5112519;28;20309;-80
2020/12/01 09:30:45;;;;;;;21.52;16.13;;;6.50;99.90;;;;;;5094615;28;20283;-80
2020/12/01 09:33:14;;;;;;;20.67;15.93;;;6.50;99.90;;;;;;5094481;28;20271;-80
2020/12/01 09:35:41;;;;;;;22.88;16.63;;;6.60;99.90;;;;;;5094660;28;20224;-81
2020/12/01 09:38:08;;;;;;;20.70;15.95;;;6.60;99.90;;;;;;5094468;28;20314;-80
2020/12/01 09:40:36;;;;;;;23.83;18.13;;;6.60;99.90;;;;;;5094508;28;20279;-81
2020/12/01 09:43:09;;;;;;;22.85;16.50;;;6.60;99.90;;;;;;5094538;28;20250;-81
2020/12/01 09:45:37;;;;;;;24.45;17.40;;;6.60;99.90;;;;;;5094717;28;20193;-82
2020/12/01 09:48:07;;;;;;;22.85;16.85;;;6.70;99.90;;;;;;5094179;28;20259;-80
2020/12/01 09:50:35;;;;;;;24.70;17.55;;;6.70;99.90;;;;;;5094430;28;20188;-80
2020/12/01 09:53:25;;;;;;;19.38;15.68;;;6.70;99.90;;;;;;5094364;28;20220;-81
2020/12/01 09:59:05;;;;;;;25.63;17.52;;;6.90;99.90;;;;;;5083004;28;20189;-80
2020/12/01 10:10:12;;;;;;;22.65;15.68;;;7.20;99.90;;;;;;5093933;28;20586;-80
2020/12/01 10:12:46;;;;;;;21.88;17.30;;;7.20;99.90;;;;;;5098529;28;20275;-80
2020/12/01 10:26:48;;;;;;;24.60;15.85;;;7.30;99.90;;;;;;5093764;28;20234;-80
2020/12/01 10:32:21;;;;;;;21.48;16.48;;;7.40;99.90;;;;;;5093714;28;20659;-79
2020/12/01 10:34:52;;;;;;;23.42;16.80;;;7.40;99.90;;;;;;5093678;28;20192;-79
2020/12/01 10:37:18;;;;;;;23.08;17.85;;;7.40;99.90;;;;;;5098729;28;20207;-81
2020/12/01 10:39:44;;;;;;;22.92;16.90;;;7.40;99.90;;;;;;5103704;28;20271;-80
2020/12/01 10:42:12;;;;;;;21.85;16.92;;;7.30;99.90;;;;;;5101954;27;20656;-80
2020/12/01 10:44:39;;;;;;;25.30;16.48;;;7.30;99.90;;;;;;5103475;28;20630;-81
2020/12/01 10:47:06;;;;;;;23.20;17.95;;;7.30;99.90;;;;;;5103561;28;20604;-81
2020/12/01 10:49:33;;;;;;;22.95;16.40;;;7.30;99.90;;;;;;5102018;28;20271;-81
2020/12/01 10:51:59;;;;;;;22.23;15.73;;;7.40;99.90;;;;;;5103207;28;20283;-80
2020/12/01 10:54:25;;;;;;;22.77;17.30;;;7.40;99.90;;;;;;5103604;28;20213;-80
2020/12/01 10:56:52;;;;;;;22.67;16.55;;;7.40;99.90;;;;;;5097346;28;20898;-81
2020/12/01 10:59:21;;;;;;;21.88;16.67;;;7.40;99.90;;;;;;5093292;28;20290;-80
2020/12/01 11:01:47;;;;;;;19.92;17.13;;;7.50;99.90;;;;;;5093063;28;20284;-80
2020/12/01 11:04:13;;;;;;;24.13;16.37;;;7.50;99.90;;;;;;5093031;28;20188;-81
2020/12/01 11:06:39;;;;;;;21.58;16.35;;;7.50;99.90;;;;;;5092828;28;20869;-80
2020/12/01 11:09:07;;;;;;;19.92;16.70;;;7.60;99.90;;;;;;5093199;28;20322;-83
2020/12/01 11:11:33;;;;;;;20.60;15.35;;;7.60;99.90;;;;;;5093035;28;20216;-82
2020/12/01 11:13:59;;;;;;;21.03;16.40;;;7.60;99.90;;;;;;5108926;28;20208;-81
2020/12/01 11:16:26;;;;;;;21.33;16.67;;;7.70;99.90;;;;;;5113342;28;20635;-89
2020/12/01 11:18:52;;;;;;;21.95;16.13;;;7.70;99.90;;;;;;5113316;28;20222;-88
2020/12/01 11:21:19;;;;;;;23.60;16.80;;;7.60;99.90;;;;;;5109425;28;20651;-88
2020/12/01 11:23:45;;;;;;;21.88;17.77;;;7.60;99.90;;;;;;5103915;28;20541;-88
2020/12/01 11:26:12;;;;;;;25.98;15.90;;;7.70;99.90;;;;;;5104706;28;20223;-89
2020/12/01 11:28:38;;;;;;;32.08;18.02;;;7.70;99.90;;;;;;5113266;28;20660;-89
2020/12/01 11:31:05;;;;;;;22.27;16.63;;;7.70;99.90;;;;;;5114502;28;20215;-90
2020/12/01 11:33:31;;;;;;;24.17;17.05;;;7.70;99.90;;;;;;5116491;28;20227;-89
2020/12/01 11:35:57;;;;;;;25.77;17.10;;;7.60;99.90;;;;;;5117257;28;20230;-89
2020/12/01 11:38:24;;;;;;;24.90;18.00;;;7.60;99.90;;;;;;5117145;27;20220;-89
2020/12/01 11:40:50;;;;;;;24.23;17.37;;;7.60;99.90;;;;;;5117132;28;20452;-89
2020/12/01 11:43:16;;;;;;;24.03;16.50;;;7.60;99.90;;;;;;5116977;28;20453;-88
2020/12/01 11:45:42;;;;;;;21.50;16.05;;;7.60;99.90;;;;;;5116947;28;20492;-88
2020/12/01 11:48:08;;;;;;;22.90;17.47;;;7.50;99.90;;;;;;5116769;28;20187;-88
2020/12/01 11:50:34;;;;;;;23.60;17.77;;;7.60;99.90;;;;;;5116928;28;20441;-89
2020/12/01 11:53:00;;;;;;;23.52;17.30;;;7.50;99.90;;;;;;5116775;28;20586;-88
2020/12/01 11:55:26;;;;;;;26.27;17.90;;;7.50;99.90;;;;;;5116843;28;20658;-89
2020/12/01 11:57:52;;;;;;;24.95;17.02;;;7.40;99.90;;;;;;5116666;28;20955;-88
2020/12/01 12:00:24;;;;;;;24.42;16.85;;;7.30;99.90;;;;;;5116742;28;20633;-89
2020/12/01 12:02:50;;;;;;;19.90;15.52;;;7.20;99.90;;;;;;5116582;28;20192;-89
2020/12/01 12:05:17;;;;;;;24.67;17.67;;;7.20;99.90;;;;;;5116597;28;20268;-89
2020/12/01 12:07:44;;;;;;;21.40;17.05;;;7.10;99.90;;;;;;5116526;28;20548;-89
2020/12/01 12:10:10;;;;;;;22.15;16.83;;;7.10;99.90;;;;;;5116474;28;20278;-89
2020/12/01 12:12:36;;;;;;;37.47;18.33;;;7.10;99.90;;;;;;5111894;28;20217;-90
2020/12/01 12:15:03;;;;;;;62.65;23.67;;;7.10;99.90;;;;;;5095975;28;21115;-89
2020/12/01 12:17:29;;;;;;;26.17;17.55;;;7.10;99.90;;;;;;5095506;28;20244;-89
2020/12/01 12:19:55;;;;;;;32.05;20.27;;;7.00;99.90;;;;;;5095999;28;20291;-89
2020/12/01 12:22:21;;;;;;;21.80;17.00;;;7.00;99.90;;;;;;5095926;28;20193;-89
2020/12/01 12:24:48;;;;;;;29.73;18.08;;;7.00;99.90;;;;;;5095778;28;20529;-89
2020/12/01 12:27:14;;;;;;;55.60;22.08;;;6.90;99.90;;;;;;5095624;28;20275;-89
2020/12/01 12:29:40;;;;;;;27.17;17.30;;;6.90;99.90;;;;;;5095518;28;20279;-88
2020/12/01 12:32:06;;;;;;;32.63;17.88;;;6.90;99.90;;;;;;5095829;28;20474;-89
2020/12/01 12:34:32;;;;;;;21.57;16.47;;;6.80;99.90;;;;;;5095582;28;20728;-88
2020/12/01 12:36:58;;;;;;;20.87;16.90;;;6.80;99.90;;;;;;5095592;28;20482;-90
2020/12/01 12:39:24;;;;;;;21.73;15.83;;;6.80;99.90;;;;;;5095564;28;20447;-88
2020/12/01 12:41:51;;;;;;;22.55;16.77;;;6.80;99.90;;;;;;5094948;28;20533;-88
2020/12/01 12:44:17;;;;;;;24.83;18.45;;;6.80;99.90;;;;;;5094364;28;20216;-88
2020/12/01 12:46:43;;;;;;;29.50;18.33;;;6.70;99.90;;;;;;5095288;28;20664;-87
2020/12/01 12:49:09;;;;;;;22.67;16.00;;;6.70;99.90;;;;;;5095523;28;20478;-89
2020/12/01 12:51:35;;;;;;;20.73;15.43;;;6.70;99.90;;;;;;5095237;28;20193;-89
2020/12/01 12:54:02;;;;;;;21.48;15.95;;;6.70;99.90;;;;;;5095100;28;20215;-89
2020/12/01 12:56:28;;;;;;;24.85;17.00;;;6.60;99.90;;;;;;5095130;28;20192;-89
2020/12/01 12:58:55;;;;;;;21.20;15.80;;;6.60;99.90;;;;;;5094991;28;20271;-89
2020/12/01 13:01:21;;;;;;;19.80;15.23;;;6.60;99.90;;;;;;5095146;28;20280;-88
2020/12/01 13:03:48;;;;;;;21.55;16.05;;;6.60;99.90;;;;;;5094889;28;20280;-89
2020/12/01 13:06:14;;;;;;;18.75;15.18;;;6.50;99.90;;;;;;5094832;28;20279;-89
2020/12/01 13:08:41;;;;;;;23.98;17.33;;;6.60;99.90;;;;;;5095109;28;20323;-89
2020/12/01 13:11:07;;;;;;;27.90;16.20;;;6.50;99.90;;;;;;5094998;28;20276;-89
2020/12/01 13:13:33;;;;;;;24.23;17.65;;;6.50;99.90;;;;;;5107154;28;20267;-89
2020/12/01 13:16:00;;;;;;;21.98;16.77;;;6.50;99.90;;;;;;5115036;28;20302;-89